Smit Clyde — CFG7577 — position and weather

sailwx.info

Track history (hours):
 
Tides and Currents Weather Stations Pressure Air Temp Water Temp Dewpoint Dewpoint Depression Visibility Wind Speed Wind Dir Waves Ship Positions

Smit Clyde

Last reported at 2014-Sep-01 22:19 UTC. Time now 2014-Sep-03 02:30 UTC.
Position N 54°18' W 130°21'.

Length 28 m; draft 6 m.

Type: Towing. MMSI: 316011473.

Date/timePositionNaut miles runAvg speedWind from/ knotsBaromVisibWave heightAir tempDewpointWater temp
2014-Sep-01 22:19N 54°18' W 130°21'0 0.0
2014-Sep-01 21:33N 54°18' W 130°21'0 0.0
2014-Sep-01 20:33N 54°18' W 130°21'0 0.0
2014-Sep-01 19:33N 54°18' W 130°21'0 0.0
2014-Sep-01 09:34N 54°18' W 130°21'0 0.0
2014-Sep-01 08:33N 54°18' W 130°21'0 0.0
2014-Sep-01 07:33N 54°18' W 130°21'0 0.0
2014-Sep-01 06:34N 54°18' W 130°21'0 0.0
2014-Sep-01 05:33N 54°18' W 130°21'0 0.0
2014-Sep-01 04:33N 54°18' W 130°21'  
2014-Aug-30 00:26N 54°16' W 130°21'1 1.6
2014-Aug-29 23:33N 54°17' W 130°22'0 0.4
2014-Aug-29 22:33N 54°18' W 130°21'0 0.0
2014-Aug-29 21:33N 54°18' W 130°21'0 0.0
2014-Aug-29 20:34N 54°18' W 130°21'0 0.0
2014-Aug-29 19:34N 54°18' W 130°21'0 0.0
2014-Aug-29 18:33N 54°18' W 130°21'0 0.0
2014-Aug-28 16:33N 54°18' W 130°21'0 0.0
2014-Aug-28 15:33N 54°18' W 130°21'0 0.0
2014-Aug-28 14:33N 54°18' W 130°21'0 0.0
2014-Aug-28 13:33N 54°18' W 130°21'0 0.0
2014-Aug-28 12:33N 54°18' W 130°21'0 0.0
2014-Aug-28 11:33N 54°18' W 130°21'0 0.0
2014-Aug-28 10:33N 54°18' W 130°21'0 0.0
2014-Aug-28 09:33N 54°18' W 130°21'0 0.0
2014-Aug-28 08:34N 54°18' W 130°21'0 0.0
2014-Aug-28 07:34N 54°18' W 130°21'0 0.0
2014-Aug-28 06:33N 54°18' W 130°21'0 0.0
2014-Aug-28 05:33N 54°18' W 130°21'0 0.0
2014-Aug-28 04:33N 54°18' W 130°21'0 0.0
2014-Aug-28 03:33N 54°18' W 130°21'0 0.0
2014-Aug-28 02:33N 54°18' W 130°21'0 0.0
2014-Aug-28 01:33N 54°18' W 130°21'0 0.0
2014-Aug-28 00:33N 54°18' W 130°21'0 0.0
2014-Aug-27 18:04N 54°18' W 130°21'0 0.0
2014-Aug-27 17:34N 54°18' W 130°21'0 0.0
2014-Aug-27 16:33N 54°18' W 130°21'0 0.0
2014-Aug-27 15:34N 54°18' W 130°21'0 0.0
2014-Aug-27 14:33N 54°18' W 130°21'0 0.0
2014-Aug-27 13:33N 54°18' W 130°21'0 0.0
2014-Aug-27 12:33N 54°18' W 130°21'0 0.0
2014-Aug-27 11:33N 54°18' W 130°21'0 0.0
2014-Aug-27 10:33N 54°18' W 130°21'0 0.0
2014-Aug-27 09:33N 54°18' W 130°21'0 0.0
2014-Aug-27 08:34N 54°18' W 130°21'0 0.0
2014-Aug-27 07:33N 54°18' W 130°21'0 0.4
2014-Aug-27 06:33N 54°17' W 130°22'1 0.9
2014-Aug-27 05:34N 54°18' W 130°22'6 5.8
2014-Aug-27 04:33N 54°12' W 130°21'5 5.3
2014-Aug-27 03:33N 54°18' W 130°21'0 0.0
2014-Aug-27 02:33N 54°18' W 130°21'0 0.0
2014-Aug-27 01:33N 54°18' W 130°21'0 0.0
2014-Aug-26 19:24N 54°18' W 130°21'  
2014-Aug-23 23:23N 54°18' W 130°21'0 0.0
2014-Aug-23 22:33N 54°18' W 130°21'0 0.0
2014-Aug-23 21:33N 54°18' W 130°21'0 0.0
2014-Aug-23 20:33N 54°18' W 130°21'0 0.0
2014-Aug-23 19:33N 54°18' W 130°21'0 0.0
2014-Aug-23 03:19N 54°18' W 130°21'0 0.0
2014-Aug-23 02:33N 54°18' W 130°21'0 0.0
2014-Aug-23 01:33N 54°18' W 130°21'0 0.0
2014-Aug-23 00:33N 54°18' W 130°21'0 0.0
2014-Aug-22 23:33N 54°18' W 130°21'0 0.0
2014-Aug-22 22:33N 54°18' W 130°21'  
Track history (hours):
 
Tides and Currents Weather Stations Pressure Air Temp Water Temp Dewpoint Dewpoint Depression Visibility Wind Speed Wind Dir Waves Ship Positions

Smit Clyde

Last reported at 2014-Sep-01 22:19 UTC. Time now 2014-Sep-03 02:30 UTC.
Position N 54°18' W 130°21'.

Length 28 m; draft 6 m.

Type: Towing. MMSI: 316011473.

Date/timePositionNaut miles runAvg speedWind from/ knotsBaromVisibWave heightAir tempDewpointWater temp
2014-Sep-01 22:19N 54°18' W 130°21'0 0.0
2014-Sep-01 21:33N 54°18' W 130°21'0 0.0
2014-Sep-01 20:33N 54°18' W 130°21'0 0.0
2014-Sep-01 19:33N 54°18' W 130°21'0 0.0
2014-Sep-01 09:34N 54°18' W 130°21'0 0.0
2014-Sep-01 08:33N 54°18' W 130°21'0 0.0
2014-Sep-01 07:33N 54°18' W 130°21'0 0.0
2014-Sep-01 06:34N 54°18' W 130°21'0 0.0
2014-Sep-01 05:33N 54°18' W 130°21'0 0.0
2014-Sep-01 04:33N 54°18' W 130°21'  
2014-Aug-30 00:26N 54°16' W 130°21'1 1.6
2014-Aug-29 23:33N 54°17' W 130°22'0 0.4
2014-Aug-29 22:33N 54°18' W 130°21'0 0.0
2014-Aug-29 21:33N 54°18' W 130°21'0 0.0
2014-Aug-29 20:34N 54°18' W 130°21'0 0.0
2014-Aug-29 19:34N 54°18' W 130°21'0 0.0
2014-Aug-29 18:33N 54°18' W 130°21'0 0.0
2014-Aug-28 16:33N 54°18' W 130°21'0 0.0
2014-Aug-28 15:33N 54°18' W 130°21'0 0.0
2014-Aug-28 14:33N 54°18' W 130°21'0 0.0
2014-Aug-28 13:33N 54°18' W 130°21'0 0.0
2014-Aug-28 12:33N 54°18' W 130°21'0 0.0
2014-Aug-28 11:33N 54°18' W 130°21'0 0.0
2014-Aug-28 10:33N 54°18' W 130°21'0 0.0
2014-Aug-28 09:33N 54°18' W 130°21'0 0.0
2014-Aug-28 08:34N 54°18' W 130°21'0 0.0
2014-Aug-28 07:34N 54°18' W 130°21'0 0.0
2014-Aug-28 06:33N 54°18' W 130°21'0 0.0
2014-Aug-28 05:33N 54°18' W 130°21'0 0.0
2014-Aug-28 04:33N 54°18' W 130°21'0 0.0
2014-Aug-28 03:33N 54°18' W 130°21'0 0.0
2014-Aug-28 02:33N 54°18' W 130°21'0 0.0
2014-Aug-28 01:33N 54°18' W 130°21'0 0.0
2014-Aug-28 00:33N 54°18' W 130°21'0 0.0
2014-Aug-27 18:04N 54°18' W 130°21'0 0.0
2014-Aug-27 17:34N 54°18' W 130°21'0 0.0
2014-Aug-27 16:33N 54°18' W 130°21'0 0.0
2014-Aug-27 15:34N 54°18' W 130°21'0 0.0
2014-Aug-27 14:33N 54°18' W 130°21'0 0.0
2014-Aug-27 13:33N 54°18' W 130°21'0 0.0
2014-Aug-27 12:33N 54°18' W 130°21'0 0.0
2014-Aug-27 11:33N 54°18' W 130°21'0 0.0
2014-Aug-27 10:33N 54°18' W 130°21'0 0.0
2014-Aug-27 09:33N 54°18' W 130°21'0 0.0
2014-Aug-27 08:34N 54°18' W 130°21'0 0.0
2014-Aug-27 07:33N 54°18' W 130°21'0 0.4
2014-Aug-27 06:33N 54°17' W 130°22'1 0.9
2014-Aug-27 05:34N 54°18' W 130°22'6 5.8
2014-Aug-27 04:33N 54°12' W 130°21'5 5.3
2014-Aug-27 03:33N 54°18' W 130°21'0 0.0
2014-Aug-27 02:33N 54°18' W 130°21'0 0.0
2014-Aug-27 01:33N 54°18' W 130°21'0 0.0
2014-Aug-26 19:24N 54°18' W 130°21'  
2014-Aug-23 23:23N 54°18' W 130°21'0 0.0
2014-Aug-23 22:33N 54°18' W 130°21'0 0.0
2014-Aug-23 21:33N 54°18' W 130°21'0 0.0
2014-Aug-23 20:33N 54°18' W 130°21'0 0.0
2014-Aug-23 19:33N 54°18' W 130°21'0 0.0
2014-Aug-23 03:19N 54°18' W 130°21'0 0.0
2014-Aug-23 02:33N 54°18' W 130°21'0 0.0
2014-Aug-23 01:33N 54°18' W 130°21'0 0.0
2014-Aug-23 00:33N 54°18' W 130°21'0 0.0
2014-Aug-22 23:33N 54°18' W 130°21'0 0.0
2014-Aug-22 22:33N 54°18' W 130°21'  

Dump ship's entire track history